Welcome, Texas
Current Conditions -  °F | °C
As of 11:55 PM on Friday 19 Dec 2014 (Local Time) from K11R Reporting Station
Overcast Overcast  
Wind Chill: 52°   Ceiling: 1400
Heat Index: 52°   Visibility: 7mi
Dew Point: 49°   Wind: 10mph
Humidity: 92%   Direction: 340°NNW
Pressure: 30.18"   Gusts: NA
Location:  29.9936°N, 96.5297°W
Report Text: K11R 200555Z AUTO 34009KT 7SM OVC014 11/10 A3018 RMK AO2 T01090097 10130 20109 401590109
Loading
Personal Weather Stations






























Interactive Weather Map New forecast layout! Learn more

10-Day Weather Forecast

Advertisements
Track Severe Weather on mobile